Terminal Aerodrome Forecast
Issued by NWS Cleveland, OH

Home | Current Version | Previous Version | Graphics & Text | Print | Product List | Glossary On
Versions: 1 2 3 4 5 6 7 8 9 10 11 12 13 14 15 16
000
FTUS41 KCLE 160257 AAA
TAFERI
TAF AMD
KERI 160257Z 1603/1624 18020G30KT 6SM -SHRA BR BKN025
      TEMPO 1603/1604 5SM -RA BR BKN015
     FM160400 20018G28KT P6SM VCSH OVC015
     FM160600 24015G25KT P6SM VCSH OVC015
     FM161500 28018G28KT P6SM VCSH OVC020=

USA.gov is the U.S. government's official web portal to all federal, state and local government web resources and services.